createdAt,value
2022-07-29T00:01:44.461Z,4.30
2022-07-29T00:04:14.279Z,3.70
2022-07-29T00:06:43.133Z,3.70
2022-07-29T00:09:11.721Z,4.10
2022-07-29T00:11:40.238Z,3.70
2022-07-29T00:14:09.549Z,3.70
2022-07-29T00:16:38.274Z,4.00
2022-07-29T00:19:07.833Z,3.90
2022-07-29T00:21:36.521Z,3.40
2022-07-29T00:24:05.355Z,3.90
2022-07-29T00:26:33.847Z,4.00
2022-07-29T00:31:53.496Z,3.80
2022-07-29T00:34:40.434Z,3.80
2022-07-29T00:37:09.001Z,4.60
2022-07-29T00:39:37.395Z,4.10
2022-07-29T00:42:06.568Z,4.10
2022-07-29T00:44:44.396Z,4.30
2022-07-29T00:47:13.785Z,3.70
2022-07-29T00:49:43.890Z,3.90
2022-07-29T00:52:16.797Z,4.50
2022-07-29T00:54:45.942Z,3.70
2022-07-29T00:57:14.670Z,3.80
2022-07-29T00:59:43.092Z,4.50
2022-07-29T01:02:12.217Z,3.80
2022-07-29T01:04:42.103Z,4.00
2022-07-29T01:07:12.184Z,4.00
2022-07-29T01:09:46.063Z,3.50
2022-07-29T01:12:20.388Z,4.10
2022-07-29T01:14:51.380Z,3.70
2022-07-29T01:17:19.693Z,4.20
2022-07-29T01:20:02.889Z,4.10
2022-07-29T01:23:07.915Z,4.20
2022-07-29T01:26:07.087Z,4.10
2022-07-29T01:29:07.506Z,3.90
2022-07-29T01:32:05.512Z,3.50
2022-07-29T01:34:55.595Z,3.90
2022-07-29T01:37:31.007Z,4.00
2022-07-29T01:40:03.370Z,3.90
2022-07-29T01:42:46.511Z,4.50
2022-07-29T01:45:44.664Z,3.80
2022-07-29T01:48:48.463Z,4.00
2022-07-29T01:51:28.955Z,3.50
2022-07-29T01:54:12.479Z,3.80
2022-07-29T01:56:44.165Z,3.10
2022-07-29T01:59:13.072Z,3.50
2022-07-29T02:01:45.332Z,3.20
2022-07-29T02:04:29.897Z,2.90
2022-07-29T02:07:05.485Z,3.00
2022-07-29T02:09:37.649Z,3.00
2022-07-29T02:12:08.454Z,3.00
2022-07-29T02:14:45.066Z,3.10
2022-07-29T02:17:16.993Z,2.90
2022-07-29T02:19:47.219Z,3.80
2022-07-29T02:22:19.731Z,3.60
2022-07-29T02:24:50.582Z,3.10
2022-07-29T02:27:21.719Z,3.00
2022-07-29T02:29:52.797Z,3.30
2022-07-29T02:32:23.926Z,3.90
2022-07-29T02:34:54.250Z,3.60
2022-07-29T02:37:23.362Z,3.50
2022-07-29T02:39:55.041Z,4.00
2022-07-29T02:44:54.038Z,3.70
2022-07-29T02:47:45.000Z,3.90
2022-07-29T02:50:31.109Z,4.00
2022-07-29T02:53:01.447Z,3.10
2022-07-29T02:55:35.146Z,3.50
2022-07-29T02:58:12.364Z,3.90
2022-07-29T03:00:43.711Z,3.70
2022-07-29T03:03:22.414Z,4.00
2022-07-29T03:05:56.159Z,4.40
2022-07-29T03:08:25.674Z,4.50
2022-07-29T03:10:54.761Z,5.40
2022-07-29T03:13:24.027Z,5.70
2022-07-29T03:15:53.590Z,5.00
2022-07-29T03:18:22.405Z,4.90
2022-07-29T03:20:51.140Z,4.80
2022-07-29T03:23:21.959Z,4.00
2022-07-29T03:25:52.012Z,4.90
2022-07-29T03:28:21.179Z,5.20
2022-07-29T03:30:51.356Z,4.80
2022-07-29T03:33:19.963Z,5.60
2022-07-29T03:35:48.715Z,5.40
2022-07-29T03:38:17.314Z,4.80
2022-07-29T03:40:52.717Z,5.30
2022-07-29T03:43:22.738Z,5.20
2022-07-29T03:45:56.160Z,5.00
2022-07-29T03:48:27.728Z,4.40
2022-07-29T03:50:57.063Z,5.60
2022-07-29T03:53:25.808Z,4.90
2022-07-29T03:56:00.826Z,5.70
2022-07-29T03:58:33.112Z,5.10
2022-07-29T04:01:02.026Z,5.50
2022-07-29T04:03:31.242Z,4.50
2022-07-29T04:06:07.386Z,4.70
2022-07-29T04:08:36.160Z,4.60
2022-07-29T04:11:05.887Z,4.90
2022-07-29T04:13:34.506Z,4.30
2022-07-29T04:16:03.280Z,5.10
2022-07-29T04:18:32.065Z,4.90
2022-07-29T04:21:02.083Z,4.30
2022-07-29T04:23:34.542Z,4.50
2022-07-29T04:26:03.148Z,4.90
2022-07-29T04:28:31.570Z,4.80
2022-07-29T04:31:00.078Z,4.90
2022-07-29T04:33:28.805Z,6.10
2022-07-29T04:35:58.528Z,5.80
2022-07-29T04:38:27.754Z,5.90
2022-07-29T04:40:56.477Z,5.70
2022-07-29T04:43:25.538Z,5.80
2022-07-29T04:45:55.556Z,6.40
2022-07-29T04:48:28.485Z,6.70
2022-07-29T04:50:57.988Z,6.80
2022-07-29T04:53:27.617Z,6.70
2022-07-29T04:55:56.540Z,7.10
2022-07-29T04:58:25.317Z,7.30
2022-07-29T05:00:54.088Z,7.20
2022-07-29T05:03:22.725Z,8.20
2022-07-29T05:05:51.225Z,10.10
2022-07-29T05:08:19.850Z,13.00
2022-07-29T05:10:48.475Z,16.50
2022-07-29T05:13:17.303Z,20.30
2022-07-29T05:15:45.893Z,16.00
2022-07-29T05:18:15.522Z,12.30
2022-07-29T05:20:47.740Z,12.80
2022-07-29T05:23:19.313Z,10.70
2022-07-29T05:25:50.123Z,9.00
2022-07-29T05:28:18.802Z,8.70
2022-07-29T05:30:47.868Z,8.80
2022-07-29T05:33:35.296Z,9.00
2022-07-29T05:36:08.155Z,8.20
2022-07-29T05:38:38.059Z,7.90
2022-07-29T05:41:07.009Z,8.20
2022-07-29T05:43:35.624Z,7.50
2022-07-29T05:46:04.414Z,7.90
2022-07-29T05:48:34.433Z,8.20
2022-07-29T05:51:03.569Z,7.70
2022-07-29T05:53:32.166Z,7.40
2022-07-29T05:56:08.433Z,7.80
2022-07-29T05:58:37.509Z,8.00
2022-07-29T06:01:06.745Z,6.70
2022-07-29T06:03:35.831Z,5.80
2022-07-29T06:06:08.508Z,6.80
2022-07-29T06:08:38.127Z,6.80
2022-07-29T06:11:06.943Z,6.50
2022-07-29T06:13:36.577Z,6.50
2022-07-29T06:16:05.696Z,6.00
2022-07-29T06:18:38.170Z,7.60
2022-07-29T06:21:13.444Z,7.70
2022-07-29T06:23:42.017Z,7.20
2022-07-29T06:26:10.516Z,7.80
2022-07-29T06:28:41.707Z,7.00
2022-07-29T06:31:13.871Z,7.70
2022-07-29T06:33:42.359Z,10.10
2022-07-29T06:36:10.926Z,8.30
2022-07-29T06:38:44.886Z,7.00
2022-07-29T06:41:18.662Z,7.10
2022-07-29T06:43:52.181Z,6.20
2022-07-29T06:46:24.527Z,5.20
2022-07-29T06:48:53.552Z,5.50
2022-07-29T06:51:23.917Z,5.50
2022-07-29T06:53:59.344Z,5.70
2022-07-29T06:56:39.635Z,5.10
2022-07-29T06:59:11.380Z,5.20
2022-07-29T07:01:44.020Z,4.80
2022-07-29T07:04:15.101Z,4.80
2022-07-29T07:06:46.609Z,4.50
2022-07-29T07:09:15.436Z,4.60
2022-07-29T07:11:43.911Z,4.90
2022-07-29T07:14:12.561Z,4.20
2022-07-29T07:16:41.361Z,4.40
2022-07-29T07:19:10.304Z,4.20
2022-07-29T07:21:39.092Z,4.50
2022-07-29T07:24:07.928Z,4.80
2022-07-29T07:26:36.902Z,5.00
2022-07-29T07:29:05.538Z,5.00
2022-07-29T07:31:34.484Z,5.10
2022-07-29T07:34:02.969Z,4.80
2022-07-29T07:36:34.614Z,5.10
2022-07-29T07:39:04.702Z,5.20
2022-07-29T07:41:33.350Z,4.70
2022-07-29T07:44:01.876Z,5.00
2022-07-29T07:46:31.918Z,5.10
2022-07-29T07:49:04.307Z,4.40
2022-07-29T07:51:32.791Z,5.00
2022-07-29T07:54:01.824Z,4.70
2022-07-29T07:56:35.135Z,4.50
2022-07-29T07:59:04.063Z,4.40
2022-07-29T08:01:48.099Z,4.30
2022-07-29T08:04:27.035Z,4.10
2022-07-29T08:06:58.972Z,3.80
2022-07-29T08:09:30.540Z,4.20
2022-07-29T08:12:00.407Z,4.20
2022-07-29T08:14:29.834Z,4.10
2022-07-29T08:16:59.419Z,4.20
2022-07-29T08:19:28.488Z,4.00
2022-07-29T08:21:57.003Z,4.50
2022-07-29T08:24:43.694Z,4.80
2022-07-29T08:27:27.239Z,4.60
2022-07-29T08:30:00.833Z,4.30
2022-07-29T08:32:51.283Z,4.40
2022-07-29T08:35:17.987Z,4.40
2022-07-29T08:37:46.690Z,4.80
2022-07-29T08:40:15.543Z,5.50
2022-07-29T08:42:44.100Z,5.00
2022-07-29T08:45:13.455Z,4.90
2022-07-29T08:47:41.975Z,4.70
2022-07-29T08:50:11.843Z,4.00
2022-07-29T08:52:42.215Z,4.20
2022-07-29T08:55:11.938Z,4.60
2022-07-29T08:57:49.628Z,4.20
2022-07-29T09:00:24.309Z,4.00
2022-07-29T09:03:00.287Z,3.70
2022-07-29T09:05:29.393Z,3.80
2022-07-29T09:07:57.907Z,3.70
2022-07-29T09:10:26.942Z,3.70
2022-07-29T09:12:56.481Z,4.00
2022-07-29T09:15:25.985Z,3.90
2022-07-29T09:17:54.496Z,3.40
2022-07-29T09:20:24.149Z,3.50
2022-07-29T09:22:54.623Z,3.20
2022-07-29T09:25:40.461Z,3.20
2022-07-29T09:28:17.731Z,3.20
2022-07-29T09:30:57.977Z,3.20
2022-07-29T09:33:40.217Z,3.90
2022-07-29T09:36:12.573Z,3.60
2022-07-29T09:38:41.183Z,3.90
2022-07-29T09:41:11.224Z,4.00
2022-07-29T09:43:40.552Z,3.80
2022-07-29T09:46:14.444Z,3.30
2022-07-29T09:48:42.978Z,3.60
2022-07-29T09:51:26.712Z,3.60
2022-07-29T09:53:58.441Z,3.80
2022-07-29T09:56:43.046Z,3.20
2022-07-29T09:59:13.212Z,3.70
2022-07-29T10:01:43.175Z,4.20
2022-07-29T10:04:11.633Z,4.00
2022-07-29T10:07:05.179Z,4.30
2022-07-29T10:09:34.881Z,4.20
2022-07-29T10:12:14.887Z,4.20
2022-07-29T10:14:44.488Z,4.80
2022-07-29T10:17:13.272Z,4.80
2022-07-29T10:19:44.944Z,4.20
2022-07-29T10:24:43.685Z,5.10
2022-07-29T10:27:14.993Z,5.20
2022-07-29T10:29:43.661Z,5.80
2022-07-29T10:32:53.969Z,4.70
2022-07-29T10:35:42.433Z,5.30
2022-07-29T10:38:48.906Z,5.00
2022-07-29T10:41:47.690Z,6.10
2022-07-29T10:44:23.764Z,7.10
2022-07-29T10:46:54.696Z,6.10
2022-07-29T10:49:27.251Z,11.20
2022-07-29T10:52:11.931Z,6.90
2022-07-29T10:54:54.783Z,9.20
2022-07-29T11:00:33.233Z,4.90
2022-07-29T11:03:04.771Z,4.40
2022-07-29T11:05:59.551Z,4.50
2022-07-29T11:08:28.955Z,4.40
2022-07-29T11:11:20.193Z,4.80
2022-07-29T11:13:54.375Z,4.20
2022-07-29T11:16:25.164Z,4.40
2022-07-29T11:19:15.880Z,4.10
2022-07-29T11:21:58.292Z,3.90
2022-07-29T11:24:32.275Z,4.80
2022-07-29T11:27:18.172Z,5.20
2022-07-29T11:29:48.327Z,5.10
2022-07-29T11:32:22.674Z,4.80
2022-07-29T11:35:19.338Z,3.80
2022-07-29T11:38:31.842Z,4.70
2022-07-29T11:41:19.022Z,5.60
2022-07-29T11:43:52.299Z,5.40
2022-07-29T11:46:50.666Z,5.80
2022-07-29T11:49:31.943Z,5.00
2022-07-29T11:52:02.895Z,5.30
2022-07-29T11:57:36.163Z,5.10
2022-07-29T12:00:12.332Z,9.10
2022-07-29T12:02:48.436Z,5.40
2022-07-29T12:05:36.019Z,4.70
2022-07-29T12:08:15.096Z,5.50
2022-07-29T12:10:44.388Z,9.30
2022-07-29T12:13:14.640Z,8.60
2022-07-29T12:15:46.009Z,7.20
2022-07-29T12:18:18.742Z,6.30
2022-07-29T12:20:49.219Z,7.70
2022-07-29T12:23:18.918Z,9.00
2022-07-29T12:25:49.683Z,6.20
2022-07-29T12:28:26.963Z,11.20
2022-07-29T12:30:56.394Z,6.40
2022-07-29T12:33:28.587Z,5.70
2022-07-29T12:36:07.282Z,3.90
2022-07-29T12:38:37.047Z,3.60
2022-07-29T12:41:05.633Z,3.60
2022-07-29T12:43:34.383Z,3.20
2022-07-29T12:46:15.199Z,3.20
2022-07-29T12:48:45.505Z,3.30
2022-07-29T12:51:15.628Z,3.50
2022-07-29T12:54:16.511Z,3.60
2022-07-29T12:56:46.262Z,3.30
2022-07-29T12:59:20.075Z,3.60
2022-07-29T13:01:52.227Z,3.40
2022-07-29T13:04:27.921Z,2.70
2022-07-29T13:07:05.276Z,3.60
2022-07-29T13:09:46.512Z,3.10
2022-07-29T13:12:15.826Z,3.40
2022-07-29T13:14:50.184Z,3.30
2022-07-29T13:17:24.286Z,3.80
2022-07-29T13:20:06.389Z,3.60
2022-07-29T13:22:37.487Z,3.90
2022-07-29T13:25:07.733Z,3.60
2022-07-29T13:27:39.506Z,3.50
2022-07-29T13:30:10.495Z,3.70
2022-07-29T13:32:39.018Z,3.90
2022-07-29T13:35:09.689Z,3.70
2022-07-29T13:37:41.374Z,4.00
2022-07-29T13:52:17.075Z,3.80
2022-07-29T13:54:45.666Z,4.20
2022-07-29T13:57:15.469Z,3.90
2022-07-29T13:59:48.362Z,4.00
2022-07-29T14:02:19.540Z,3.60
2022-07-29T14:04:48.654Z,5.10
2022-07-29T14:07:17.282Z,3.80
2022-07-29T14:09:45.865Z,3.80
2022-07-29T14:12:14.874Z,4.20
2022-07-29T14:14:43.772Z,4.10
2022-07-29T14:17:12.674Z,3.60
2022-07-29T14:19:41.286Z,4.00
2022-07-29T14:22:11.149Z,3.30
2022-07-29T14:24:40.616Z,3.60
2022-07-29T14:27:09.786Z,4.00
2022-07-29T14:29:39.471Z,3.80
2022-07-29T14:32:08.915Z,4.00
2022-07-29T14:34:45.650Z,4.20
2022-07-29T14:37:20.486Z,4.00
2022-07-29T14:39:49.896Z,4.00
2022-07-29T14:42:18.421Z,4.10
2022-07-29T14:44:47.042Z,3.50
2022-07-29T14:47:15.972Z,3.50
2022-07-29T14:49:44.425Z,4.00
2022-07-29T14:52:13.105Z,3.50
2022-07-29T14:54:41.733Z,3.30
2022-07-29T14:57:10.263Z,3.50
2022-07-29T14:59:38.774Z,3.20
2022-07-29T15:02:07.290Z,4.40
2022-07-29T15:04:35.890Z,4.10
2022-07-29T15:07:05.188Z,4.30
2022-07-29T15:09:40.332Z,4.30
2022-07-29T15:12:18.964Z,19.90
2022-07-29T15:14:49.931Z,7.70
2022-07-29T15:17:18.500Z,9.40
2022-07-29T15:19:47.920Z,4.80
2022-07-29T15:22:16.407Z,4.80
2022-07-29T15:24:45.569Z,4.80
2022-07-29T15:27:15.220Z,4.40
2022-07-29T15:29:45.152Z,3.80
2022-07-29T15:32:13.722Z,4.00
2022-07-29T15:34:42.721Z,3.70
2022-07-29T15:37:12.507Z,3.60
2022-07-29T15:39:41.005Z,3.40
2022-07-29T15:42:09.530Z,4.10
2022-07-29T15:44:38.359Z,4.10
2022-07-29T15:47:07.638Z,4.20
2022-07-29T15:49:48.026Z,4.40
2022-07-29T15:52:25.506Z,4.10
2022-07-29T15:54:56.971Z,3.60
2022-07-29T15:57:29.951Z,3.50
2022-07-29T15:59:58.590Z,3.50
2022-07-29T16:02:27.308Z,4.20
2022-07-29T16:04:55.948Z,3.70
2022-07-29T16:07:25.409Z,4.30
2022-07-29T16:10:00.253Z,3.80
2022-07-29T16:12:28.826Z,4.30
2022-07-29T16:14:57.780Z,4.80
2022-07-29T16:17:27.980Z,5.90
2022-07-29T16:19:56.738Z,5.50
2022-07-29T16:22:25.431Z,5.10
2022-07-29T16:24:53.949Z,5.80
2022-07-29T16:27:35.348Z,5.80
2022-07-29T16:30:10.874Z,6.00
2022-07-29T16:32:41.989Z,5.80
2022-07-29T16:35:12.082Z,6.20
2022-07-29T16:37:43.798Z,4.80
2022-07-29T16:40:13.139Z,4.70
2022-07-29T16:42:46.971Z,6.20
2022-07-29T16:45:18.069Z,6.00
2022-07-29T16:47:51.115Z,6.70
2022-07-29T16:50:20.243Z,6.50
2022-07-29T16:52:49.227Z,6.20
2022-07-29T16:55:17.960Z,6.10
2022-07-29T16:57:47.263Z,5.50
2022-07-29T17:00:17.778Z,5.80
2022-07-29T17:02:46.671Z,5.60
2022-07-29T17:05:16.270Z,6.20
2022-07-29T17:07:44.874Z,5.00
2022-07-29T17:10:13.606Z,4.90
2022-07-29T17:12:44.327Z,4.80
2022-07-29T17:15:14.292Z,5.80
2022-07-29T17:17:54.776Z,5.20
2022-07-29T17:20:26.909Z,4.90
2022-07-29T17:22:55.674Z,5.00
2022-07-29T17:25:25.204Z,5.60
2022-07-29T17:28:00.561Z,6.20
2022-07-29T17:30:30.319Z,6.60
2022-07-29T17:32:59.146Z,6.80
2022-07-29T17:35:46.087Z,8.20
2022-07-29T17:38:14.690Z,9.40
2022-07-29T17:40:43.329Z,7.30
2022-07-29T17:43:11.950Z,8.80
2022-07-29T17:45:50.430Z,7.80
2022-07-29T17:48:20.094Z,8.00
2022-07-29T17:50:49.410Z,7.80
2022-07-29T17:53:18.378Z,6.90
2022-07-29T17:55:48.910Z,6.20
2022-07-29T17:58:17.800Z,6.30
2022-07-29T18:00:46.406Z,6.40
2022-07-29T18:03:15.647Z,5.80
2022-07-29T18:05:44.605Z,5.60
2022-07-29T18:08:13.322Z,6.40
2022-07-29T18:10:42.253Z,6.10
2022-07-29T18:13:14.367Z,6.00
2022-07-29T18:15:45.235Z,5.50
2022-07-29T18:18:15.477Z,6.20
2022-07-29T18:20:44.650Z,8.20
2022-07-29T18:23:14.211Z,7.40
2022-07-29T18:25:43.025Z,7.90
2022-07-29T18:28:11.637Z,8.30
2022-07-29T18:30:40.195Z,8.20
2022-07-29T18:33:22.873Z,7.90
2022-07-29T18:36:10.598Z,8.10
2022-07-29T18:38:41.456Z,8.20
2022-07-29T18:41:10.675Z,7.80
2022-07-29T18:43:39.399Z,8.80
2022-07-29T18:46:08.162Z,9.00
2022-07-29T18:48:36.942Z,8.30
2022-07-29T18:51:09.044Z,8.20
2022-07-29T18:53:38.399Z,7.40
2022-07-29T18:56:06.988Z,8.50
2022-07-29T18:58:37.252Z,9.20
2022-07-29T19:01:06.784Z,10.50
2022-07-29T19:03:35.903Z,11.50
2022-07-29T19:06:04.926Z,14.30
2022-07-29T19:08:33.687Z,12.00
2022-07-29T19:11:02.430Z,11.20
2022-07-29T19:13:31.430Z,11.70
2022-07-29T19:16:00.017Z,10.70
2022-07-29T19:18:28.740Z,10.60
2022-07-29T19:20:57.555Z,10.70
2022-07-29T19:23:26.095Z,9.70
2022-07-29T19:25:54.926Z,9.10
2022-07-29T19:28:23.721Z,8.80
2022-07-29T19:30:52.706Z,8.90
2022-07-29T19:33:21.413Z,9.30
2022-07-29T19:35:54.611Z,8.70
2022-07-29T19:38:24.082Z,8.10
2022-07-29T19:40:56.905Z,7.50
2022-07-29T19:43:50.452Z,6.60
2022-07-29T19:46:14.229Z,5.00
2022-07-29T19:48:43.086Z,4.90
2022-07-29T19:51:11.977Z,5.20
2022-07-29T19:53:41.005Z,4.90
2022-07-29T19:56:09.844Z,5.70
2022-07-29T19:58:39.380Z,4.90
2022-07-29T20:01:14.683Z,5.20
2022-07-29T20:03:45.017Z,5.30
2022-07-29T20:06:14.059Z,6.00
2022-07-29T20:08:43.127Z,5.30
2022-07-29T20:11:11.744Z,5.50
2022-07-29T20:13:40.528Z,5.60
2022-07-29T20:16:09.256Z,6.00
2022-07-29T20:18:38.018Z,6.40
2022-07-29T20:21:06.735Z,6.20
2022-07-29T20:23:35.406Z,6.40
2022-07-29T20:26:09.395Z,6.30
2022-07-29T20:28:40.454Z,6.50
2022-07-29T20:31:09.610Z,7.50
2022-07-29T20:33:38.280Z,6.90
2022-07-29T20:36:07.203Z,8.30
2022-07-29T20:38:36.122Z,9.30
2022-07-29T20:41:05.357Z,8.70
2022-07-29T20:43:36.014Z,9.50
2022-07-29T20:46:07.722Z,7.90
2022-07-29T20:48:36.386Z,8.40
2022-07-29T20:51:04.956Z,7.80
2022-07-29T20:53:33.967Z,8.40
2022-07-29T20:56:02.502Z,7.80
2022-07-29T20:58:32.592Z,7.30
2022-07-29T21:01:02.039Z,7.90
2022-07-29T21:03:30.983Z,6.70
2022-07-29T21:06:00.425Z,7.50
2022-07-29T21:08:29.144Z,7.00
2022-07-29T21:10:57.949Z,7.60
2022-07-29T21:13:26.707Z,6.60
2022-07-29T21:16:00.011Z,7.10
2022-07-29T21:18:33.249Z,7.20
2022-07-29T21:21:01.927Z,6.90
2022-07-29T21:23:31.001Z,7.00
2022-07-29T21:26:00.219Z,7.20
2022-07-29T21:28:36.977Z,7.30
2022-07-29T21:31:12.717Z,7.40
2022-07-29T21:33:46.392Z,7.10
2022-07-29T21:36:46.748Z,7.20
2022-07-29T21:39:07.397Z,6.40
2022-07-29T21:41:36.209Z,6.90
2022-07-29T21:44:04.831Z,6.40
2022-07-29T21:46:33.503Z,6.50
2022-07-29T21:49:02.285Z,7.50
2022-07-29T21:51:30.898Z,6.90
2022-07-29T21:53:59.515Z,7.50
2022-07-29T21:56:30.275Z,6.50
2022-07-29T21:59:00.012Z,7.10
2022-07-29T22:01:28.513Z,7.50
2022-07-29T22:04:07.695Z,7.60
2022-07-29T22:06:36.779Z,7.40
2022-07-29T22:09:05.801Z,7.90
2022-07-29T22:11:36.727Z,7.00
2022-07-29T22:14:07.466Z,6.80
2022-07-29T22:16:36.264Z,7.70
2022-07-29T22:19:05.002Z,7.00
2022-07-29T22:21:33.624Z,6.70
2022-07-29T22:24:02.347Z,7.50
2022-07-29T22:26:31.271Z,7.10
2022-07-29T22:28:59.771Z,7.20
2022-07-29T22:31:28.521Z,6.00
2022-07-29T22:33:57.042Z,6.70
2022-07-29T22:36:27.143Z,6.50
2022-07-29T22:38:55.885Z,6.80
2022-07-29T22:41:24.513Z,6.20
2022-07-29T22:43:53.036Z,6.40
2022-07-29T22:46:22.525Z,6.50
2022-07-29T22:48:51.226Z,6.90
2022-07-29T22:51:19.720Z,7.10
2022-07-29T22:53:48.323Z,7.20
2022-07-29T22:56:17.749Z,7.50
2022-07-29T22:58:46.677Z,7.00
2022-07-29T23:01:16.794Z,6.70
2022-07-29T23:04:06.825Z,6.90
2022-07-29T23:06:35.518Z,7.10
2022-07-29T23:09:04.927Z,7.70
2022-07-29T23:11:33.568Z,7.60
2022-07-29T23:14:02.188Z,8.70
2022-07-29T23:16:30.786Z,9.30
2022-07-29T23:18:59.536Z,10.40
2022-07-29T23:21:28.151Z,10.00
2022-07-29T23:23:56.679Z,9.60
2022-07-29T23:26:25.271Z,9.60
2022-07-29T23:28:53.826Z,9.70
2022-07-29T23:31:22.339Z,10.90
2022-07-29T23:33:50.963Z,10.60
2022-07-29T23:36:21.089Z,9.50
2022-07-29T23:38:49.812Z,10.30
2022-07-29T23:41:18.432Z,9.80
2022-07-29T23:43:49.497Z,9.70
2022-07-29T23:46:18.158Z,9.30
2022-07-29T23:48:52.682Z,10.00
2022-07-29T23:51:21.857Z,9.60
2022-07-29T23:53:53.313Z,9.60
2022-07-29T23:56:23.010Z,10.10
2022-07-29T23:58:51.739Z,9.80
